sensor_id;sensor_type;location;lat;lon;timestamp;P1;durP1;ratioP1;P2;durP2;ratioP2
21901;SDS011;11115;46.038;14.612;2023-05-10T00:00:26;1.10;;;0.70;;
21901;SDS011;11115;46.038;14.612;2023-05-10T00:03:00;1.67;;;1.07;;
21901;SDS011;11115;46.038;14.612;2023-05-10T00:05:35;1.30;;;0.80;;
21901;SDS011;11115;46.038;14.612;2023-05-10T00:08:05;1.00;;;0.90;;
21901;SDS011;11115;46.038;14.612;2023-05-10T00:10:37;1.07;;;0.80;;
21901;SDS011;11115;46.038;14.612;2023-05-10T00:13:08;1.40;;;0.67;;
21901;SDS011;11115;46.038;14.612;2023-05-10T00:15:40;0.93;;;0.60;;
21901;SDS011;11115;46.038;14.612;2023-05-10T00:18:12;2.73;;;0.97;;
21901;SDS011;11115;46.038;14.612;2023-05-10T00:20:56;1.23;;;1.13;;
21901;SDS011;11115;46.038;14.612;2023-05-10T00:23:31;0.83;;;0.60;;
21901;SDS011;11115;46.038;14.612;2023-05-10T00:26:03;1.05;;;0.85;;
21901;SDS011;11115;46.038;14.612;2023-05-10T00:28:43;2.83;;;0.70;;
21901;SDS011;11115;46.038;14.612;2023-05-10T00:31:21;1.40;;;0.83;;
21901;SDS011;11115;46.038;14.612;2023-05-10T00:33:49;0.80;;;0.80;;
21901;SDS011;11115;46.038;14.612;2023-05-10T00:36:23;1.30;;;1.13;;
21901;SDS011;11115;46.038;14.612;2023-05-10T00:39:01;1.00;;;0.90;;
21901;SDS011;11115;46.038;14.612;2023-05-10T00:41:36;2.17;;;0.87;;
21901;SDS011;11115;46.038;14.612;2023-05-10T00:44:05;3.07;;;0.90;;
21901;SDS011;11115;46.038;14.612;2023-05-10T00:46:37;0.60;;;0.60;;
21901;SDS011;11115;46.038;14.612;2023-05-10T00:49:09;1.20;;;0.83;;
21901;SDS011;11115;46.038;14.612;2023-05-10T00:51:41;1.10;;;0.80;;
21901;SDS011;11115;46.038;14.612;2023-05-10T00:54:19;1.57;;;0.90;;
21901;SDS011;11115;46.038;14.612;2023-05-10T00:56:47;1.50;;;1.03;;
21901;SDS011;11115;46.038;14.612;2023-05-10T00:59:20;0.83;;;0.83;;
21901;SDS011;11115;46.038;14.612;2023-05-10T01:01:53;1.07;;;1.00;;
21901;SDS011;11115;46.038;14.612;2023-05-10T01:04:24;1.20;;;1.10;;
21901;SDS011;11115;46.038;14.612;2023-05-10T01:06:56;1.60;;;0.90;;
21901;SDS011;11115;46.038;14.612;2023-05-10T01:09:30;0.80;;;0.80;;
21901;SDS011;11115;46.038;14.612;2023-05-10T01:12:16;1.20;;;1.00;;
21901;SDS011;11115;46.038;14.612;2023-05-10T01:15:02;2.70;;;0.90;;
21901;SDS011;11115;46.038;14.612;2023-05-10T01:17:40;1.43;;;1.07;;
21901;SDS011;11115;46.038;14.612;2023-05-10T01:20:13;1.00;;;0.93;;
21901;SDS011;11115;46.038;14.612;2023-05-10T01:26:55;1.23;;;0.77;;
21901;SDS011;11115;46.038;14.612;2023-05-10T01:29:29;1.63;;;1.20;;
21901;SDS011;11115;46.038;14.612;2023-05-10T01:36:13;1.63;;;1.00;;
21901;SDS011;11115;46.038;14.612;2023-05-10T01:39:36;1.83;;;1.17;;
21901;SDS011;11115;46.038;14.612;2023-05-10T01:42:28;1.87;;;0.80;;
21901;SDS011;11115;46.038;14.612;2023-05-10T01:48:08;1.77;;;1.20;;
21901;SDS011;11115;46.038;14.612;2023-05-10T01:50:44;1.83;;;1.00;;
21901;SDS011;11115;46.038;14.612;2023-05-10T01:53:23;1.63;;;1.13;;
21901;SDS011;11115;46.038;14.612;2023-05-10T01:55:59;2.13;;;1.30;;
21901;SDS011;11115;46.038;14.612;2023-05-10T01:58:43;2.10;;;1.57;;
21901;SDS011;11115;46.038;14.612;2023-05-10T02:01:26;1.77;;;1.40;;
21901;SDS011;11115;46.038;14.612;2023-05-10T02:04:10;0.90;;;0.80;;
21901;SDS011;11115;46.038;14.612;2023-05-10T02:06:46;2.37;;;1.30;;
21901;SDS011;11115;46.038;14.612;2023-05-10T02:09:20;1.90;;;1.20;;
21901;SDS011;11115;46.038;14.612;2023-05-10T02:11:51;1.17;;;1.07;;
21901;SDS011;11115;46.038;14.612;2023-05-10T02:14:34;1.63;;;0.97;;
21901;SDS011;11115;46.038;14.612;2023-05-10T02:17:05;2.17;;;1.10;;
21901;SDS011;11115;46.038;14.612;2023-05-10T02:19:40;1.58;;;1.20;;
21901;SDS011;11115;46.038;14.612;2023-05-10T02:22:13;3.13;;;1.40;;
21901;SDS011;11115;46.038;14.612;2023-05-10T02:24:47;2.10;;;0.97;;
21901;SDS011;11115;46.038;14.612;2023-05-10T02:27:30;2.10;;;1.20;;
21901;SDS011;11115;46.038;14.612;2023-05-10T02:30:14;2.00;;;1.17;;
21901;SDS011;11115;46.038;14.612;2023-05-10T02:32:45;1.13;;;0.90;;
21901;SDS011;11115;46.038;14.612;2023-05-10T02:35:25;2.00;;;1.50;;
21901;SDS011;11115;46.038;14.612;2023-05-10T02:38:04;1.50;;;0.93;;
21901;SDS011;11115;46.038;14.612;2023-05-10T02:40:36;2.00;;;1.00;;
21901;SDS011;11115;46.038;14.612;2023-05-10T02:43:14;1.60;;;1.30;;
21901;SDS011;11115;46.038;14.612;2023-05-10T02:45:49;1.30;;;1.00;;
21901;SDS011;11115;46.038;14.612;2023-05-10T02:48:18;2.13;;;1.50;;
21901;SDS011;11115;46.038;14.612;2023-05-10T02:50:50;1.20;;;0.95;;
21901;SDS011;11115;46.038;14.612;2023-05-10T02:53:38;1.10;;;1.00;;
21901;SDS011;11115;46.038;14.612;2023-05-10T02:56:15;2.03;;;1.03;;
21901;SDS011;11115;46.038;14.612;2023-05-10T02:59:14;1.83;;;0.80;;
21901;SDS011;11115;46.038;14.612;2023-05-10T03:01:59;1.13;;;0.73;;
21901;SDS011;11115;46.038;14.612;2023-05-10T03:04:50;1.47;;;0.80;;
21901;SDS011;11115;46.038;14.612;2023-05-10T03:07:19;2.07;;;1.00;;
21901;SDS011;11115;46.038;14.612;2023-05-10T03:09:50;2.28;;;1.15;;
21901;SDS011;11115;46.038;14.612;2023-05-10T03:15:47;1.47;;;1.07;;
21901;SDS011;11115;46.038;14.612;2023-05-10T03:21:50;10.90;;;1.20;;
21901;SDS011;11115;46.038;14.612;2023-05-10T03:24:34;2.43;;;0.87;;
21901;SDS011;11115;46.038;14.612;2023-05-10T03:27:09;3.37;;;1.10;;
21901;SDS011;11115;46.038;14.612;2023-05-10T03:29:42;1.10;;;0.90;;
21901;SDS011;11115;46.038;14.612;2023-05-10T03:32:16;1.73;;;1.03;;
21901;SDS011;11115;46.038;14.612;2023-05-10T03:34:58;1.03;;;0.87;;
21901;SDS011;11115;46.038;14.612;2023-05-10T03:37:31;1.53;;;0.97;;
21901;SDS011;11115;46.038;14.612;2023-05-10T03:40:01;1.20;;;0.93;;
21901;SDS011;11115;46.038;14.612;2023-05-10T03:42:38;2.10;;;1.20;;
21901;SDS011;11115;46.038;14.612;2023-05-10T03:45:30;1.45;;;0.93;;
21901;SDS011;11115;46.038;14.612;2023-05-10T03:48:03;6.27;;;1.20;;
21901;SDS011;11115;46.038;14.612;2023-05-10T03:50:35;1.70;;;1.20;;
21901;SDS011;11115;46.038;14.612;2023-05-10T03:53:18;1.53;;;1.17;;
21901;SDS011;11115;46.038;14.612;2023-05-10T03:56:03;2.20;;;1.27;;
21901;SDS011;11115;46.038;14.612;2023-05-10T03:58:35;1.10;;;0.90;;
21901;SDS011;11115;46.038;14.612;2023-05-10T04:01:12;1.60;;;0.90;;
21901;SDS011;11115;46.038;14.612;2023-05-10T04:03:44;2.00;;;1.20;;
21901;SDS011;11115;46.038;14.612;2023-05-10T04:06:20;1.50;;;1.10;;
21901;SDS011;11115;46.038;14.612;2023-05-10T04:08:54;1.47;;;1.00;;
21901;SDS011;11115;46.038;14.612;2023-05-10T04:11:31;1.40;;;0.87;;
21901;SDS011;11115;46.038;14.612;2023-05-10T04:14:10;1.57;;;1.03;;
21901;SDS011;11115;46.038;14.612;2023-05-10T04:16:39;1.93;;;1.30;;
21901;SDS011;11115;46.038;14.612;2023-05-10T04:19:28;3.80;;;1.23;;
21901;SDS011;11115;46.038;14.612;2023-05-10T04:22:04;1.30;;;1.07;;
21901;SDS011;11115;46.038;14.612;2023-05-10T04:24:35;9.10;;;1.50;;
21901;SDS011;11115;46.038;14.612;2023-05-10T04:27:06;2.30;;;1.17;;
21901;SDS011;11115;46.038;14.612;2023-05-10T04:29:37;1.53;;;1.00;;
21901;SDS011;11115;46.038;14.612;2023-05-10T04:32:09;2.17;;;1.33;;
21901;SDS011;11115;46.038;14.612;2023-05-10T04:34:54;3.17;;;1.53;;
21901;SDS011;11115;46.038;14.612;2023-05-10T04:37:27;2.03;;;1.47;;
21901;SDS011;11115;46.038;14.612;2023-05-10T04:40:03;2.50;;;1.00;;
21901;SDS011;11115;46.038;14.612;2023-05-10T04:42:45;2.83;;;1.48;;
21901;SDS011;11115;46.038;14.612;2023-05-10T04:45:21;4.10;;;1.70;;
21901;SDS011;11115;46.038;14.612;2023-05-10T04:47:52;4.70;;;2.40;;
21901;SDS011;11115;46.038;14.612;2023-05-10T04:50:32;3.33;;;1.90;;
21901;SDS011;11115;46.038;14.612;2023-05-10T04:53:10;2.33;;;1.40;;
21901;SDS011;11115;46.038;14.612;2023-05-10T04:55:44;2.80;;;1.67;;
21901;SDS011;11115;46.038;14.612;2023-05-10T04:58:15;5.93;;;1.30;;
21901;SDS011;11115;46.038;14.612;2023-05-10T05:00:45;1.60;;;1.10;;
21901;SDS011;11115;46.038;14.612;2023-05-10T05:03:18;1.52;;;1.25;;
21901;SDS011;11115;46.038;14.612;2023-05-10T05:05:55;2.33;;;1.37;;
21901;SDS011;11115;46.038;14.612;2023-05-10T05:08:38;1.48;;;1.23;;
21901;SDS011;11115;46.038;14.612;2023-05-10T05:11:22;3.57;;;1.63;;
21901;SDS011;11115;46.038;14.612;2023-05-10T05:13:52;2.80;;;1.48;;
21901;SDS011;11115;46.038;14.612;2023-05-10T05:16:23;2.42;;;1.50;;
21901;SDS011;11115;46.038;14.612;2023-05-10T05:18:53;2.83;;;2.13;;
21901;SDS011;11115;46.038;14.612;2023-05-10T05:21:32;2.33;;;1.37;;
21901;SDS011;11115;46.038;14.612;2023-05-10T05:24:05;2.13;;;1.57;;
21901;SDS011;11115;46.038;14.612;2023-05-10T05:26:41;1.53;;;1.40;;
21901;SDS011;11115;46.038;14.612;2023-05-10T05:29:12;4.33;;;2.17;;
21901;SDS011;11115;46.038;14.612;2023-05-10T05:31:41;2.83;;;1.47;;
21901;SDS011;11115;46.038;14.612;2023-05-10T05:34:21;3.30;;;1.63;;
21901;SDS011;11115;46.038;14.612;2023-05-10T05:36:52;5.23;;;2.10;;
21901;SDS011;11115;46.038;14.612;2023-05-10T05:39:25;4.30;;;1.87;;
21901;SDS011;11115;46.038;14.612;2023-05-10T05:42:18;2.75;;;1.30;;
21901;SDS011;11115;46.038;14.612;2023-05-10T05:44:55;3.10;;;1.77;;
21901;SDS011;11115;46.038;14.612;2023-05-10T05:47:24;2.20;;;1.17;;
21901;SDS011;11115;46.038;14.612;2023-05-10T05:49:56;2.47;;;1.87;;
21901;SDS011;11115;46.038;14.612;2023-05-10T05:52:40;1.80;;;1.47;;
21901;SDS011;11115;46.038;14.612;2023-05-10T05:55:27;1.67;;;1.30;;
21901;SDS011;11115;46.038;14.612;2023-05-10T05:58:00;1.77;;;1.50;;
21901;SDS011;11115;46.038;14.612;2023-05-10T06:00:40;4.03;;;1.73;;
21901;SDS011;11115;46.038;14.612;2023-05-10T06:03:14;6.20;;;1.40;;
21901;SDS011;11115;46.038;14.612;2023-05-10T06:05:58;1.80;;;1.50;;
21901;SDS011;11115;46.038;14.612;2023-05-10T06:08:28;3.53;;;1.67;;
21901;SDS011;11115;46.038;14.612;2023-05-10T06:11:06;3.83;;;2.00;;
21901;SDS011;11115;46.038;14.612;2023-05-10T06:13:37;13.47;;;3.10;;
21901;SDS011;11115;46.038;14.612;2023-05-10T06:16:24;3.33;;;2.27;;
21901;SDS011;11115;46.038;14.612;2023-05-10T06:19:06;6.78;;;2.28;;
21901;SDS011;11115;46.038;14.612;2023-05-10T06:21:45;2.40;;;1.87;;
21901;SDS011;11115;46.038;14.612;2023-05-10T06:24:20;3.60;;;1.50;;
21901;SDS011;11115;46.038;14.612;2023-05-10T06:26:52;1.63;;;1.52;;
21901;SDS011;11115;46.038;14.612;2023-05-10T06:29:25;4.53;;;1.83;;
21901;SDS011;11115;46.038;14.612;2023-05-10T06:31:58;4.60;;;1.83;;
21901;SDS011;11115;46.038;14.612;2023-05-10T06:34:38;3.83;;;2.13;;
21901;SDS011;11115;46.038;14.612;2023-05-10T06:37:10;9.77;;;2.03;;
21901;SDS011;11115;46.038;14.612;2023-05-10T06:39:41;2.80;;;1.40;;
21901;SDS011;11115;46.038;14.612;2023-05-10T06:42:13;2.40;;;1.27;;
21901;SDS011;11115;46.038;14.612;2023-05-10T06:44:58;3.00;;;1.57;;
21901;SDS011;11115;46.038;14.612;2023-05-10T06:47:38;3.80;;;1.60;;
21901;SDS011;11115;46.038;14.612;2023-05-10T06:50:22;2.40;;;1.40;;
21901;SDS011;11115;46.038;14.612;2023-05-10T06:52:52;2.47;;;1.67;;
21901;SDS011;11115;46.038;14.612;2023-05-10T06:55:22;3.63;;;1.87;;
21901;SDS011;11115;46.038;14.612;2023-05-10T06:58:00;3.80;;;1.67;;
21901;SDS011;11115;46.038;14.612;2023-05-10T07:00:31;2.63;;;1.33;;
21901;SDS011;11115;46.038;14.612;2023-05-10T07:03:11;1.33;;;1.23;;
21901;SDS011;11115;46.038;14.612;2023-05-10T07:05:45;3.53;;;1.57;;
21901;SDS011;11115;46.038;14.612;2023-05-10T07:08:15;2.85;;;1.75;;
21901;SDS011;11115;46.038;14.612;2023-05-10T07:11:05;3.43;;;1.40;;
21901;SDS011;11115;46.038;14.612;2023-05-10T07:13:36;2.47;;;1.50;;
21901;SDS011;11115;46.038;14.612;2023-05-10T07:16:09;5.05;;;2.25;;
21901;SDS011;11115;46.038;14.612;2023-05-10T07:18:45;3.83;;;1.50;;
21901;SDS011;11115;46.038;14.612;2023-05-10T07:21:16;3.45;;;1.65;;
21901;SDS011;11115;46.038;14.612;2023-05-10T07:23:51;1.50;;;1.40;;
21901;SDS011;11115;46.038;14.612;2023-05-10T07:26:26;2.47;;;1.70;;
21901;SDS011;11115;46.038;14.612;2023-05-10T07:28:59;1.13;;;1.00;;
21901;SDS011;11115;46.038;14.612;2023-05-10T07:31:33;2.30;;;1.53;;
21901;SDS011;11115;46.038;14.612;2023-05-10T07:34:07;2.07;;;1.20;;
21901;SDS011;11115;46.038;14.612;2023-05-10T07:36:42;4.63;;;1.53;;
21901;SDS011;11115;46.038;14.612;2023-05-10T07:39:18;1.33;;;1.23;;
21901;SDS011;11115;46.038;14.612;2023-05-10T07:41:53;3.33;;;1.70;;
21901;SDS011;11115;46.038;14.612;2023-05-10T07:44:26;2.47;;;1.53;;
21901;SDS011;11115;46.038;14.612;2023-05-10T07:46:57;1.87;;;1.30;;
21901;SDS011;11115;46.038;14.612;2023-05-10T07:49:31;2.10;;;1.27;;
21901;SDS011;11115;46.038;14.612;2023-05-10T07:52:05;2.37;;;1.53;;
21901;SDS011;11115;46.038;14.612;2023-05-10T07:54:58;1.67;;;1.50;;
21901;SDS011;11115;46.038;14.612;2023-05-10T07:57:29;2.07;;;1.63;;
21901;SDS011;11115;46.038;14.612;2023-05-10T08:00:01;1.27;;;1.17;;
21901;SDS011;11115;46.038;14.612;2023-05-10T08:02:51;2.40;;;1.70;;
21901;SDS011;11115;46.038;14.612;2023-05-10T08:05:24;3.77;;;1.30;;
21901;SDS011;11115;46.038;14.612;2023-05-10T08:07:54;2.28;;;1.65;;
21901;SDS011;11115;46.038;14.612;2023-05-10T08:10:29;3.13;;;1.80;;
21901;SDS011;11115;46.038;14.612;2023-05-10T08:13:00;1.77;;;1.53;;
21901;SDS011;11115;46.038;14.612;2023-05-10T08:15:30;5.63;;;1.75;;
21901;SDS011;11115;46.038;14.612;2023-05-10T08:18:01;2.70;;;1.53;;
21901;SDS011;11115;46.038;14.612;2023-05-10T08:20:32;2.93;;;1.30;;
21901;SDS011;11115;46.038;14.612;2023-05-10T08:23:16;2.87;;;1.63;;
21901;SDS011;11115;46.038;14.612;2023-05-10T08:25:52;2.73;;;1.50;;
21901;SDS011;11115;46.038;14.612;2023-05-10T08:28:47;4.00;;;1.57;;
21901;SDS011;11115;46.038;14.612;2023-05-10T08:31:24;1.87;;;1.40;;
21901;SDS011;11115;46.038;14.612;2023-05-10T08:33:53;3.80;;;1.63;;
21901;SDS011;11115;46.038;14.612;2023-05-10T08:36:29;1.63;;;1.40;;
21901;SDS011;11115;46.038;14.612;2023-05-10T08:39:02;2.17;;;1.67;;
21901;SDS011;11115;46.038;14.612;2023-05-10T08:41:53;4.35;;;2.08;;
21901;SDS011;11115;46.038;14.612;2023-05-10T08:44:25;3.40;;;1.57;;
21901;SDS011;11115;46.038;14.612;2023-05-10T08:46:56;1.90;;;1.27;;
21901;SDS011;11115;46.038;14.612;2023-05-10T08:49:34;1.20;;;1.10;;
21901;SDS011;11115;46.038;14.612;2023-05-10T08:52:19;2.87;;;1.00;;
21901;SDS011;11115;46.038;14.612;2023-05-10T08:54:50;1.77;;;1.20;;
21901;SDS011;11115;46.038;14.612;2023-05-10T08:57:30;3.03;;;1.20;;
21901;SDS011;11115;46.038;14.612;2023-05-10T09:00:01;3.05;;;1.40;;
21901;SDS011;11115;46.038;14.612;2023-05-10T09:02:36;1.97;;;1.17;;
21901;SDS011;11115;46.038;14.612;2023-05-10T09:05:13;1.47;;;0.90;;
21901;SDS011;11115;46.038;14.612;2023-05-10T09:07:45;4.10;;;1.50;;
21901;SDS011;11115;46.038;14.612;2023-05-10T09:10:19;2.40;;;1.70;;
21901;SDS011;11115;46.038;14.612;2023-05-10T09:13:11;1.43;;;1.03;;
21901;SDS011;11115;46.038;14.612;2023-05-10T09:15:43;4.57;;;1.13;;
21901;SDS011;11115;46.038;14.612;2023-05-10T09:18:14;1.20;;;1.10;;
21901;SDS011;11115;46.038;14.612;2023-05-10T09:20:48;1.70;;;1.40;;
21901;SDS011;11115;46.038;14.612;2023-05-10T09:23:19;1.65;;;1.38;;
21901;SDS011;11115;46.038;14.612;2023-05-10T09:26:01;3.28;;;1.77;;
21901;SDS011;11115;46.038;14.612;2023-05-10T09:28:55;2.03;;;1.13;;
21901;SDS011;11115;46.038;14.612;2023-05-10T09:31:45;2.00;;;1.30;;
21901;SDS011;11115;46.038;14.612;2023-05-10T09:34:33;1.60;;;1.30;;
21901;SDS011;11115;46.038;14.612;2023-05-10T09:37:14;1.63;;;1.47;;
21901;SDS011;11115;46.038;14.612;2023-05-10T09:39:58;3.53;;;2.07;;
21901;SDS011;11115;46.038;14.612;2023-05-10T09:42:26;3.53;;;1.50;;
21901;SDS011;11115;46.038;14.612;2023-05-10T09:45:07;3.00;;;1.83;;
21901;SDS011;11115;46.038;14.612;2023-05-10T09:47:39;1.75;;;1.30;;
21901;SDS011;11115;46.038;14.612;2023-05-10T09:50:12;1.70;;;1.40;;
21901;SDS011;11115;46.038;14.612;2023-05-10T09:55:45;3.33;;;1.80;;
21901;SDS011;11115;46.038;14.612;2023-05-10T09:58:22;1.40;;;1.20;;
21901;SDS011;11115;46.038;14.612;2023-05-10T10:01:00;2.73;;;1.90;;
21901;SDS011;11115;46.038;14.612;2023-05-10T10:03:30;2.83;;;2.00;;
21901;SDS011;11115;46.038;14.612;2023-05-10T10:06:03;3.10;;;2.33;;
21901;SDS011;11115;46.038;14.612;2023-05-10T10:08:49;2.53;;;1.93;;
21901;SDS011;11115;46.038;14.612;2023-05-10T10:11:21;2.83;;;1.80;;
21901;SDS011;11115;46.038;14.612;2023-05-10T10:13:56;3.40;;;1.50;;
21901;SDS011;11115;46.038;14.612;2023-05-10T10:16:47;3.43;;;2.10;;
21901;SDS011;11115;46.038;14.612;2023-05-10T10:19:34;1.87;;;1.33;;
21901;SDS011;11115;46.038;14.612;2023-05-10T10:24:48;4.03;;;1.95;;
21901;SDS011;11115;46.038;14.612;2023-05-10T10:27:23;6.80;;;2.40;;
21901;SDS011;11115;46.038;14.612;2023-05-10T10:32:47;5.10;;;2.80;;
21901;SDS011;11115;46.038;14.612;2023-05-10T10:35:54;5.13;;;1.93;;
21901;SDS011;11115;46.038;14.612;2023-05-10T10:39:12;1.73;;;1.23;;
21901;SDS011;11115;46.038;14.612;2023-05-10T10:41:47;2.27;;;2.00;;
21901;SDS011;11115;46.038;14.612;2023-05-10T10:44:35;3.27;;;1.40;;
21901;SDS011;11115;46.038;14.612;2023-05-10T10:50:06;1.87;;;1.60;;
21901;SDS011;11115;46.038;14.612;2023-05-10T10:52:46;2.97;;;1.90;;
21901;SDS011;11115;46.038;14.612;2023-05-10T10:55:24;1.77;;;1.50;;
21901;SDS011;11115;46.038;14.612;2023-05-10T10:57:57;3.53;;;1.70;;
21901;SDS011;11115;46.038;14.612;2023-05-10T11:00:45;2.63;;;1.77;;
21901;SDS011;11115;46.038;14.612;2023-05-10T11:03:20;1.57;;;1.43;;
21901;SDS011;11115;46.038;14.612;2023-05-10T11:05:55;1.97;;;1.50;;
21901;SDS011;11115;46.038;14.612;2023-05-10T11:08:31;3.93;;;1.60;;
21901;SDS011;11115;46.038;14.612;2023-05-10T11:11:07;1.47;;;1.27;;
21901;SDS011;11115;46.038;14.612;2023-05-10T11:13:44;5.78;;;1.85;;
21901;SDS011;11115;46.038;14.612;2023-05-10T11:16:49;6.60;;;1.80;;
21901;SDS011;11115;46.038;14.612;2023-05-10T11:19:32;2.23;;;1.70;;
21901;SDS011;11115;46.038;14.612;2023-05-10T11:22:12;3.30;;;1.70;;
21901;SDS011;11115;46.038;14.612;2023-05-10T11:24:41;1.93;;;1.47;;
21901;SDS011;11115;46.038;14.612;2023-05-10T11:27:37;2.27;;;1.23;;
21901;SDS011;11115;46.038;14.612;2023-05-10T11:30:23;4.63;;;1.80;;
21901;SDS011;11115;46.038;14.612;2023-05-10T11:32:55;1.53;;;1.13;;
21901;SDS011;11115;46.038;14.612;2023-05-10T11:35:27;3.70;;;2.00;;
21901;SDS011;11115;46.038;14.612;2023-05-10T11:37:57;4.23;;;2.00;;
21901;SDS011;11115;46.038;14.612;2023-05-10T11:40:26;3.57;;;2.27;;
21901;SDS011;11115;46.038;14.612;2023-05-10T11:42:56;5.30;;;2.10;;
21901;SDS011;11115;46.038;14.612;2023-05-10T11:45:24;2.67;;;1.87;;
21901;SDS011;11115;46.038;14.612;2023-05-10T11:48:17;2.03;;;1.63;;
21901;SDS011;11115;46.038;14.612;2023-05-10T11:51:00;3.57;;;1.90;;
21901;SDS011;11115;46.038;14.612;2023-05-10T11:53:39;2.63;;;1.80;;
21901;SDS011;11115;46.038;14.612;2023-05-10T11:56:12;2.83;;;1.83;;
21901;SDS011;11115;46.038;14.612;2023-05-10T11:58:41;5.30;;;2.33;;
21901;SDS011;11115;46.038;14.612;2023-05-10T12:01:13;4.17;;;2.43;;
21901;SDS011;11115;46.038;14.612;2023-05-10T12:03:46;2.80;;;2.13;;
21901;SDS011;11115;46.038;14.612;2023-05-10T12:06:31;6.13;;;2.93;;
21901;SDS011;11115;46.038;14.612;2023-05-10T12:09:05;4.07;;;2.17;;
21901;SDS011;11115;46.038;14.612;2023-05-10T12:11:38;3.60;;;2.53;;
21901;SDS011;11115;46.038;14.612;2023-05-10T12:14:10;4.17;;;2.60;;
21901;SDS011;11115;46.038;14.612;2023-05-10T12:16:39;3.47;;;2.07;;
21901;SDS011;11115;46.038;14.612;2023-05-10T12:19:18;4.00;;;2.20;;
21901;SDS011;11115;46.038;14.612;2023-05-10T12:21:55;3.03;;;1.93;;
21901;SDS011;11115;46.038;14.612;2023-05-10T12:24:37;6.93;;;2.60;;
21901;SDS011;11115;46.038;14.612;2023-05-10T12:27:08;4.72;;;2.45;;
21901;SDS011;11115;46.038;14.612;2023-05-10T12:29:36;3.43;;;2.03;;
21901;SDS011;11115;46.038;14.612;2023-05-10T12:32:12;5.23;;;2.43;;
21901;SDS011;11115;46.038;14.612;2023-05-10T12:34:40;3.23;;;1.90;;
21901;SDS011;11115;46.038;14.612;2023-05-10T12:37:09;3.63;;;2.13;;
21901;SDS011;11115;46.038;14.612;2023-05-10T12:39:49;5.80;;;2.47;;
21901;SDS011;11115;46.038;14.612;2023-05-10T12:42:17;3.80;;;2.00;;
21901;SDS011;11115;46.038;14.612;2023-05-10T12:44:59;3.57;;;2.37;;
21901;SDS011;11115;46.038;14.612;2023-05-10T12:47:36;4.13;;;2.50;;
21901;SDS011;11115;46.038;14.612;2023-05-10T12:50:10;5.00;;;2.20;;
21901;SDS011;11115;46.038;14.612;2023-05-10T12:52:40;5.67;;;2.53;;
21901;SDS011;11115;46.038;14.612;2023-05-10T12:55:11;2.20;;;2.00;;
21901;SDS011;11115;46.038;14.612;2023-05-10T12:57:41;8.00;;;3.05;;
21901;SDS011;11115;46.038;14.612;2023-05-10T13:00:12;7.33;;;2.80;;
21901;SDS011;11115;46.038;14.612;2023-05-10T13:02:46;4.93;;;2.50;;
21901;SDS011;11115;46.038;14.612;2023-05-10T13:05:16;10.23;;;3.13;;
21901;SDS011;11115;46.038;14.612;2023-05-10T13:07:55;3.90;;;2.67;;
21901;SDS011;11115;46.038;14.612;2023-05-10T13:10:25;4.60;;;2.40;;
21901;SDS011;11115;46.038;14.612;2023-05-10T13:12:58;3.90;;;2.63;;
21901;SDS011;11115;46.038;14.612;2023-05-10T13:15:32;4.60;;;2.97;;
21901;SDS011;11115;46.038;14.612;2023-05-10T13:18:05;3.37;;;2.60;;
21901;SDS011;11115;46.038;14.612;2023-05-10T13:20:34;2.97;;;2.67;;
21901;SDS011;11115;46.038;14.612;2023-05-10T13:23:11;6.87;;;2.53;;
21901;SDS011;11115;46.038;14.612;2023-05-10T13:25:41;6.20;;;2.63;;
21901;SDS011;11115;46.038;14.612;2023-05-10T13:28:12;4.03;;;2.90;;
21901;SDS011;11115;46.038;14.612;2023-05-10T13:30:45;7.13;;;3.30;;
21901;SDS011;11115;46.038;14.612;2023-05-10T13:33:27;7.13;;;2.88;;
21901;SDS011;11115;46.038;14.612;2023-05-10T13:36:01;3.93;;;2.70;;
21901;SDS011;11115;46.038;14.612;2023-05-10T13:38:49;4.43;;;2.60;;
21901;SDS011;11115;46.038;14.612;2023-05-10T13:41:20;3.70;;;2.43;;
21901;SDS011;11115;46.038;14.612;2023-05-10T13:43:53;4.43;;;2.57;;
21901;SDS011;11115;46.038;14.612;2023-05-10T13:46:23;4.37;;;2.70;;
21901;SDS011;11115;46.038;14.612;2023-05-10T13:49:09;7.13;;;3.20;;
21901;SDS011;11115;46.038;14.612;2023-05-10T13:51:45;3.73;;;2.70;;
21901;SDS011;11115;46.038;14.612;2023-05-10T13:54:14;3.80;;;2.93;;
21901;SDS011;11115;46.038;14.612;2023-05-10T13:56:48;5.40;;;2.93;;
21901;SDS011;11115;46.038;14.612;2023-05-10T13:59:30;7.47;;;3.50;;
21901;SDS011;11115;46.038;14.612;2023-05-10T14:02:08;5.40;;;3.73;;
21901;SDS011;11115;46.038;14.612;2023-05-10T14:04:41;3.90;;;2.78;;
21901;SDS011;11115;46.038;14.612;2023-05-10T14:07:14;4.20;;;2.83;;
21901;SDS011;11115;46.038;14.612;2023-05-10T14:09:47;4.73;;;2.70;;
21901;SDS011;11115;46.038;14.612;2023-05-10T14:12:15;5.80;;;2.97;;
21901;SDS011;11115;46.038;14.612;2023-05-10T14:14:48;4.80;;;2.30;;
21901;SDS011;11115;46.038;14.612;2023-05-10T14:17:37;5.47;;;2.67;;
21901;SDS011;11115;46.038;14.612;2023-05-10T14:20:09;8.20;;;2.75;;
21901;SDS011;11115;46.038;14.612;2023-05-10T14:22:40;8.80;;;3.67;;
21901;SDS011;11115;46.038;14.612;2023-05-10T14:25:11;8.38;;;3.30;;
21901;SDS011;11115;46.038;14.612;2023-05-10T14:27:41;4.70;;;3.20;;
21901;SDS011;11115;46.038;14.612;2023-05-10T14:30:13;4.95;;;3.03;;
21901;SDS011;11115;46.038;14.612;2023-05-10T14:32:46;4.63;;;3.37;;
21901;SDS011;11115;46.038;14.612;2023-05-10T14:35:17;6.93;;;3.17;;
21901;SDS011;11115;46.038;14.612;2023-05-10T14:37:46;5.33;;;3.30;;
21901;SDS011;11115;46.038;14.612;2023-05-10T14:40:23;6.73;;;3.37;;
21901;SDS011;11115;46.038;14.612;2023-05-10T14:43:10;5.67;;;3.20;;
21901;SDS011;11115;46.038;14.612;2023-05-10T14:45:38;5.00;;;3.17;;
21901;SDS011;11115;46.038;14.612;2023-05-10T14:50:43;4.95;;;2.28;;
21901;SDS011;11115;46.038;14.612;2023-05-10T14:53:28;4.66;;;3.22;;
21901;SDS011;11115;46.038;14.612;2023-05-10T14:55:59;5.35;;;3.17;;
21901;SDS011;11115;46.038;14.612;2023-05-10T14:58:33;5.13;;;3.37;;
21901;SDS011;11115;46.038;14.612;2023-05-10T15:01:05;3.87;;;2.27;;
21901;SDS011;11115;46.038;14.612;2023-05-10T15:03:51;4.07;;;2.30;;
21901;SDS011;11115;46.038;14.612;2023-05-10T15:06:36;5.07;;;2.50;;
21901;SDS011;11115;46.038;14.612;2023-05-10T15:09:07;12.57;;;2.70;;
21901;SDS011;11115;46.038;14.612;2023-05-10T15:11:39;3.93;;;2.80;;
21901;SDS011;11115;46.038;14.612;2023-05-10T15:14:17;4.87;;;3.00;;
21901;SDS011;11115;46.038;14.612;2023-05-10T15:17:01;7.00;;;3.30;;
21901;SDS011;11115;46.038;14.612;2023-05-10T15:19:36;6.23;;;3.80;;
21901;SDS011;11115;46.038;14.612;2023-05-10T15:22:08;7.13;;;3.90;;
21901;SDS011;11115;46.038;14.612;2023-05-10T15:24:38;4.27;;;2.97;;
21901;SDS011;11115;46.038;14.612;2023-05-10T15:27:12;3.20;;;2.67;;
21901;SDS011;11115;46.038;14.612;2023-05-10T15:29:40;3.90;;;2.33;;
21901;SDS011;11115;46.038;14.612;2023-05-10T15:32:10;2.27;;;1.90;;
21901;SDS011;11115;46.038;14.612;2023-05-10T15:34:41;3.42;;;2.33;;
21901;SDS011;11115;46.038;14.612;2023-05-10T15:37:12;5.17;;;2.77;;
21901;SDS011;11115;46.038;14.612;2023-05-10T15:39:42;5.40;;;2.63;;
21901;SDS011;11115;46.038;14.612;2023-05-10T15:42:28;9.30;;;3.00;;
21901;SDS011;11115;46.038;14.612;2023-05-10T15:45:07;7.33;;;2.80;;
21901;SDS011;11115;46.038;14.612;2023-05-10T15:47:46;5.50;;;2.77;;
21901;SDS011;11115;46.038;14.612;2023-05-10T15:50:27;3.63;;;2.40;;
21901;SDS011;11115;46.038;14.612;2023-05-10T15:53:04;5.03;;;2.97;;
21901;SDS011;11115;46.038;14.612;2023-05-10T15:55:41;3.10;;;2.43;;
21901;SDS011;11115;46.038;14.612;2023-05-10T15:58:10;5.57;;;3.27;;